Time;durP1;ratioP1;P1;durP2;ratioP2;P2;SDS_P1;SDS_P2;PMS_P1;PMS_P2;Temp;Humidity;BMP_temperature;BMP_pressure;BME280_temperature;BME280_humidity;BME280_pressure;Samples;Min_cycle;Max_cycle;Signal;HPM_P1;HPM_P2
2022/12/31 00:01:42;;;;;;;271.00;105.82;;;6.40;99.90;;;;;;5071338;28;20021;-79
2022/12/31 00:04:09;;;;;;;271.67;103.50;;;6.40;99.90;;;;;;5071531;28;20071;-80
2022/12/31 00:06:35;;;;;;;265.27;105.53;;;6.40;99.90;;;;;;5074729;28;20027;-78
2022/12/31 00:09:04;;;;;;;313.58;120.03;;;6.40;99.90;;;;;;5080092;28;20020;-78
2022/12/31 00:11:31;;;;;;;369.77;144.27;;;6.40;99.90;;;;;;5074898;28;20024;-79
2022/12/31 00:13:57;;;;;;;308.00;125.43;;;6.30;99.90;;;;;;5074181;28;20383;-79
2022/12/31 00:16:27;;;;;;;342.42;136.48;;;6.20;99.90;;;;;;5073149;28;20029;-80
2022/12/31 00:18:55;;;;;;;288.15;122.97;;;6.20;99.90;;;;;;5073472;28;20442;-79
2022/12/31 00:21:21;;;;;;;290.92;120.78;;;6.20;99.90;;;;;;5073577;28;20376;-79
2022/12/31 00:23:47;;;;;;;324.30;138.35;;;6.10;99.90;;;;;;5073052;28;20039;-79
2022/12/31 00:26:15;;;;;;;402.48;154.30;;;6.10;99.90;;;;;;5074299;28;20071;-80
2022/12/31 00:28:42;;;;;;;470.58;179.88;;;6.10;99.90;;;;;;5073009;28;20024;-79
2022/12/31 00:31:17;;;;;;;460.55;181.88;;;6.10;99.90;;;;;;5072842;28;20111;-80
2022/12/31 00:33:43;;;;;;;422.95;175.88;;;6.10;99.90;;;;;;5074352;28;20031;-79
2022/12/31 00:36:18;;;;;;;436.27;187.50;;;6.10;99.90;;;;;;5074177;28;20024;-79
2022/12/31 00:38:45;;;;;;;396.50;174.98;;;6.00;99.90;;;;;;5074290;28;20059;-79
2022/12/31 00:41:13;;;;;;;398.33;167.63;;;6.10;99.90;;;;;;5073821;28;20367;-79
2022/12/31 00:43:38;;;;;;;394.70;160.32;;;6.00;99.90;;;;;;5073728;28;20024;-78
2022/12/31 00:46:05;;;;;;;375.27;153.02;;;6.00;99.90;;;;;;5073081;28;20057;-79
2022/12/31 00:48:32;;;;;;;427.38;167.18;;;6.00;99.90;;;;;;5073380;28;20111;-79
2022/12/31 00:50:58;;;;;;;512.75;187.82;;;6.00;99.90;;;;;;5073066;28;20036;-79
2022/12/31 00:53:25;;;;;;;385.90;154.90;;;6.00;99.90;;;;;;5073760;28;20031;-79
2022/12/31 00:55:51;;;;;;;471.77;172.75;;;6.00;99.90;;;;;;5073516;28;20031;-79
2022/12/31 00:58:17;;;;;;;416.60;161.38;;;6.00;99.90;;;;;;5073480;28;20020;-79
2022/12/31 01:00:43;;;;;;;444.98;174.52;;;5.90;99.90;;;;;;5073422;28;20028;-78
2022/12/31 01:03:09;;;;;;;473.65;180.00;;;5.90;99.90;;;;;;5072953;28;20031;-78
2022/12/31 01:05:35;;;;;;;479.13;185.18;;;5.90;99.90;;;;;;5073450;28;20028;-78
2022/12/31 01:08:02;;;;;;;436.02;188.23;;;5.80;99.90;;;;;;5071773;28;20024;-79
2022/12/31 01:13:12;;;;;;;449.75;190.80;;;5.80;99.90;;;;;;5072672;28;20028;-79
2022/12/31 01:15:38;;;;;;;463.15;194.98;;;5.80;99.90;;;;;;5073105;28;20395;-79
2022/12/31 01:18:06;;;;;;;452.60;206.10;;;5.80;99.90;;;;;;5072712;28;20038;-78
2022/12/31 01:20:40;;;;;;;451.27;196.77;;;5.80;99.90;;;;;;5072904;28;20044;-79
2022/12/31 01:23:07;;;;;;;463.75;202.15;;;5.80;99.90;;;;;;5072695;28;20036;-78
2022/12/31 01:25:38;;;;;;;438.80;195.52;;;5.70;99.90;;;;;;5073014;28;20070;-79
2022/12/31 01:28:05;;;;;;;435.35;199.75;;;5.70;99.90;;;;;;5072443;28;20467;-78
2022/12/31 01:30:31;;;;;;;409.63;187.23;;;5.70;99.90;;;;;;5072922;28;20099;-79
2022/12/31 01:32:57;;;;;;;381.08;173.25;;;5.70;99.90;;;;;;5074498;28;20031;-79
2022/12/31 01:35:23;;;;;;;351.83;153.20;;;5.70;99.90;;;;;;5077033;28;20028;-79
2022/12/31 01:37:49;;;;;;;313.98;144.73;;;5.80;99.90;;;;;;5076138;28;20032;-78
2022/12/31 01:40:15;;;;;;;311.98;140.05;;;5.80;99.90;;;;;;5077352;28;20034;-78
2022/12/31 01:42:41;;;;;;;302.15;133.77;;;5.80;99.90;;;;;;5076888;28;20070;-79
2022/12/31 01:45:12;;;;;;;287.08;122.50;;;5.80;99.90;;;;;;5075359;28;20051;-78
2022/12/31 01:47:45;;;;;;;265.08;120.03;;;5.80;99.90;;;;;;5070803;28;20024;-79
2022/12/31 01:50:19;;;;;;;262.67;121.07;;;5.80;99.90;;;;;;5076724;28;20464;-79
2022/12/31 01:52:48;;;;;;;258.15;117.72;;;5.80;99.90;;;;;;5072263;28;20028;-80
2022/12/31 01:55:30;;;;;;;304.13;133.25;;;5.80;99.90;;;;;;5074891;28;20028;-79
2022/12/31 01:58:07;;;;;;;;;;;5.70;99.90;;;;;;5074730;28;20032;-79
2022/12/31 02:00:33;;;;;;;296.90;127.93;;;5.70;99.90;;;;;;5073148;28;19943;-78
2022/12/31 02:02:59;;;;;;;284.15;124.22;;;5.70;99.90;;;;;;5076295;28;20028;-79
2022/12/31 02:05:34;;;;;;;270.35;120.45;;;5.60;99.90;;;;;;5076377;28;20036;-78
2022/12/31 02:08:01;;;;;;;266.23;117.50;;;5.70;99.90;;;;;;5076298;28;20104;-78
2022/12/31 02:10:26;;;;;;;267.02;115.70;;;5.70;99.90;;;;;;5076100;28;20444;-79
2022/12/31 02:12:52;;;;;;;217.68;99.65;;;5.70;99.90;;;;;;5075248;28;20073;-79
2022/12/31 02:15:27;;;;;;;252.73;110.97;;;5.70;99.90;;;;;;5075302;28;20031;-79
2022/12/31 02:18:27;;;;;;;249.80;112.88;;;5.70;99.90;;;;;;5075997;28;20024;-77
2022/12/31 02:21:16;;;;;;;238.95;109.20;;;5.80;99.90;;;;;;5076417;28;20579;-77
2022/12/31 02:24:02;;;;;;;246.43;108.50;;;5.80;99.90;;;;;;5019407;28;20526;-77
2022/12/31 02:26:49;;;;;;;251.43;109.80;;;5.90;99.90;;;;;;5022362;28;20042;-77
2022/12/31 02:29:38;;;;;;;225.20;102.47;;;6.00;99.90;;;;;;5026031;28;20037;-76
2022/12/31 02:32:16;;;;;;;214.98;97.40;;;6.00;99.90;;;;;;5014160;28;20024;-77
2022/12/31 02:35:11;;;;;;;205.52;92.95;;;6.10;99.90;;;;;;5025250;28;20069;-77
2022/12/31 02:37:40;;;;;;;211.55;92.68;;;6.20;99.90;;;;;;5000947;28;20038;-77
2022/12/31 02:40:10;;;;;;;215.82;94.18;;;6.20;99.90;;;;;;5003677;28;20053;-77
2022/12/31 02:42:36;;;;;;;200.15;88.97;;;6.30;99.90;;;;;;5025944;28;20099;-76
2022/12/31 02:45:02;;;;;;;194.45;91.88;;;6.40;99.90;;;;;;5019149;28;20492;-77
2022/12/31 02:47:40;;;;;;;185.85;89.50;;;6.40;99.90;;;;;;5008877;28;20034;-76
2022/12/31 02:50:26;;;;;;;177.07;81.50;;;6.50;99.90;;;;;;5021114;28;20033;-76
2022/12/31 02:53:07;;;;;;;191.55;90.47;;;6.60;99.90;;;;;;5023423;28;20104;-76
2022/12/31 02:56:05;;;;;;;191.53;81.47;;;6.60;99.90;;;;;;5022589;28;20129;-76
2022/12/31 03:04:32;;;;;;;171.52;75.28;;;6.60;99.90;;;;;;5075381;28;20370;-77
2022/12/31 03:07:13;;;;;;;172.73;78.40;;;6.70;99.90;;;;;;5073816;28;20581;-77
2022/12/31 03:09:39;;;;;;;127.93;58.53;;;6.70;99.90;;;;;;5075234;28;20028;-77
2022/12/31 03:14:52;;;;;;;176.80;76.85;;;6.70;99.90;;;;;;5072975;28;20031;-77
2022/12/31 03:17:17;;;;;;;171.85;73.30;;;6.80;99.90;;;;;;5073870;28;20024;-77
2022/12/31 03:22:27;;;;;;;160.07;75.20;;;6.80;99.90;;;;;;5070081;28;20039;-78
2022/12/31 03:25:40;;;;;;;127.78;59.95;;;6.90;99.90;;;;;;5073974;28;20028;-77
2022/12/31 03:28:09;;;;;;;117.88;52.67;;;6.90;99.90;;;;;;5074242;28;20507;-76
2022/12/31 03:30:37;;;;;;;118.63;53.95;;;6.90;99.90;;;;;;5074718;28;20046;-76
2022/12/31 03:33:04;;;;;;;129.57;55.13;;;6.90;99.90;;;;;;5073298;28;20024;-76
2022/12/31 03:35:32;;;;;;;119.07;52.05;;;6.90;99.90;;;;;;5074377;28;20558;-76
2022/12/31 03:37:58;;;;;;;125.22;53.83;;;7.00;99.90;;;;;;5073149;28;20029;-76
2022/12/31 03:40:25;;;;;;;146.68;61.08;;;7.00;99.90;;;;;;5073898;28;20473;-76
2022/12/31 03:42:51;;;;;;;124.18;55.15;;;7.00;99.90;;;;;;5093449;28;20443;-77
2022/12/31 03:45:17;;;;;;;181.48;77.47;;;7.10;99.90;;;;;;5083224;28;20027;-77
2022/12/31 03:47:43;;;;;;;170.07;77.20;;;7.10;99.90;;;;;;5073899;28;20020;-76
2022/12/31 03:50:11;;;;;;;130.45;57.55;;;7.10;99.90;;;;;;5074340;28;20082;-76
2022/12/31 03:52:37;;;;;;;198.27;85.22;;;7.20;99.90;;;;;;5074071;28;20033;-76
2022/12/31 03:55:03;;;;;;;184.35;79.55;;;7.20;99.90;;;;;;5073892;28;20035;-76
2022/12/31 03:57:30;;;;;;;179.30;79.72;;;7.20;99.90;;;;;;5073087;28;20040;-76
2022/12/31 03:59:55;;;;;;;172.88;73.03;;;7.30;99.90;;;;;;5073197;28;20021;-77
2022/12/31 04:02:21;;;;;;;188.25;84.07;;;7.30;99.90;;;;;;5073384;28;20035;-77
2022/12/31 04:04:47;;;;;;;182.25;79.07;;;7.30;99.90;;;;;;5073411;28;20051;-77
2022/12/31 04:07:13;;;;;;;151.55;69.47;;;7.30;99.90;;;;;;5084458;28;20048;-78
2022/12/31 04:09:38;;;;;;;155.38;71.45;;;7.30;99.90;;;;;;5078516;28;20367;-78
2022/12/31 04:12:04;;;;;;;146.00;65.97;;;7.30;99.90;;;;;;5073099;28;20089;-76
2022/12/31 04:14:30;;;;;;;112.55;52.22;;;7.30;99.90;;;;;;5076767;28;20040;-77
2022/12/31 04:16:56;;;;;;;116.63;53.22;;;7.20;99.90;;;;;;5092705;28;20020;-78
2022/12/31 04:19:21;;;;;;;158.30;71.82;;;7.20;99.90;;;;;;5073946;28;20468;-76
2022/12/31 04:21:47;;;;;;;92.32;46.00;;;7.10;99.90;;;;;;5073382;28;20023;-77
2022/12/31 04:24:13;;;;;;;90.03;40.85;;;7.00;99.90;;;;;;5073305;28;20123;-77
2022/12/31 04:26:39;;;;;;;108.55;41.90;;;7.00;99.90;;;;;;5073494;28;20459;-78
2022/12/31 04:29:05;;;;;;;93.60;42.65;;;7.00;99.90;;;;;;5073576;28;20123;-77
2022/12/31 04:31:30;;;;;;;128.77;50.47;;;6.90;99.90;;;;;;5073375;28;20158;-77
2022/12/31 04:33:56;;;;;;;118.78;55.05;;;6.90;99.90;;;;;;5073158;28;20029;-78
2022/12/31 04:36:21;;;;;;;97.45;45.38;;;6.90;99.90;;;;;;5072307;28;20030;-77
2022/12/31 04:38:47;;;;;;;104.38;49.08;;;6.80;99.90;;;;;;5073258;28;20024;-76
2022/12/31 04:41:15;;;;;;;108.15;47.45;;;6.80;99.90;;;;;;5073489;28;20359;-77
2022/12/31 04:43:46;;;;;;;127.85;58.13;;;6.80;99.90;;;;;;5072923;28;20074;-78
2022/12/31 04:46:12;;;;;;;133.65;62.78;;;6.70;99.90;;;;;;5072094;28;20414;-77
2022/12/31 04:48:39;;;;;;;146.77;72.32;;;6.70;99.90;;;;;;5072045;28;20357;-77
2022/12/31 04:51:04;;;;;;;125.80;60.47;;;6.70;99.90;;;;;;5073457;28;20055;-77
2022/12/31 04:53:31;;;;;;;132.23;62.03;;;6.60;99.90;;;;;;5073424;28;20436;-76
2022/12/31 04:55:57;;;;;;;137.02;62.30;;;6.60;99.90;;;;;;5071853;28;20048;-76
2022/12/31 04:58:23;;;;;;;128.70;56.90;;;6.60;99.90;;;;;;5072651;28;20032;-77
2022/12/31 05:00:50;;;;;;;122.75;57.03;;;6.50;99.90;;;;;;5071921;28;20029;-77
2022/12/31 05:03:17;;;;;;;135.13;56.33;;;6.50;99.90;;;;;;5072992;28;20016;-76
2022/12/31 05:05:43;;;;;;;124.20;56.92;;;6.50;99.90;;;;;;5071931;28;20029;-77
2022/12/31 05:08:10;;;;;;;127.13;58.55;;;6.50;99.90;;;;;;5071618;28;20031;-77
2022/12/31 05:10:36;;;;;;;128.73;55.00;;;6.50;99.90;;;;;;5071646;28;20447;-77
2022/12/31 05:13:02;;;;;;;121.10;55.63;;;6.50;99.90;;;;;;5072791;28;20056;-77
2022/12/31 05:15:28;;;;;;;132.32;56.45;;;6.50;99.90;;;;;;5072595;28;20033;-77
2022/12/31 05:17:54;;;;;;;140.00;58.97;;;6.50;99.90;;;;;;5072971;28;20035;-76
2022/12/31 05:20:20;;;;;;;148.27;64.75;;;6.50;99.90;;;;;;5071511;28;20119;-76
2022/12/31 05:22:45;;;;;;;163.05;71.50;;;6.60;99.90;;;;;;5073295;28;20104;-76
2022/12/31 05:25:11;;;;;;;185.98;81.45;;;6.60;99.90;;;;;;5072178;28;20021;-77
2022/12/31 05:27:37;;;;;;;174.75;79.82;;;6.60;99.90;;;;;;5071559;28;20024;-77
2022/12/31 05:30:06;;;;;;;210.20;86.72;;;6.60;99.90;;;;;;5071359;28;20033;-76
2022/12/31 05:32:33;;;;;;;182.88;85.18;;;6.60;99.90;;;;;;5072657;28;20036;-76
2022/12/31 05:34:58;;;;;;;200.50;86.57;;;6.60;99.90;;;;;;5072688;28;20037;-77
2022/12/31 05:37:26;;;;;;;216.65;94.93;;;6.60;99.90;;;;;;5071687;28;20044;-77
2022/12/31 05:39:52;;;;;;;227.70;99.57;;;6.70;99.90;;;;;;5072245;28;20063;-76
2022/12/31 05:42:17;;;;;;;213.45;93.57;;;6.60;99.90;;;;;;5072812;28;20633;-76
2022/12/31 05:44:43;;;;;;;222.75;98.53;;;6.60;99.90;;;;;;5070732;28;20512;-76
2022/12/31 05:47:09;;;;;;;214.55;93.13;;;6.70;99.90;;;;;;5079814;28;20020;-79
2022/12/31 05:49:34;;;;;;;209.60;95.32;;;6.60;99.90;;;;;;5087521;28;20021;-78
2022/12/31 05:52:00;;;;;;;200.65;89.85;;;6.70;99.90;;;;;;5073833;28;20114;-78
2022/12/31 05:54:26;;;;;;;192.30;85.53;;;6.80;99.90;;;;;;5072291;28;20029;-78
2022/12/31 05:56:52;;;;;;;182.32;82.75;;;6.80;99.90;;;;;;5073099;28;20052;-79
2022/12/31 05:59:18;;;;;;;198.18;84.85;;;6.90;99.90;;;;;;5071920;28;20360;-77
2022/12/31 06:01:43;;;;;;;207.90;82.60;;;6.90;99.90;;;;;;5073318;28;20017;-79
2022/12/31 06:04:09;;;;;;;179.10;78.03;;;7.00;99.90;;;;;;5071468;28;20512;-77
2022/12/31 06:06:35;;;;;;;167.07;74.75;;;7.00;99.90;;;;;;5071117;28;20032;-78
2022/12/31 06:09:01;;;;;;;173.93;75.85;;;7.10;99.90;;;;;;5073347;28;20451;-78
2022/12/31 06:11:26;;;;;;;156.38;74.05;;;7.10;99.90;;;;;;5073060;28;20020;-78
2022/12/31 06:13:52;;;;;;;180.75;79.88;;;7.10;99.90;;;;;;5072765;28;20029;-78
2022/12/31 06:16:18;;;;;;;165.88;76.45;;;7.20;99.90;;;;;;5073059;28;20367;-78
2022/12/31 06:18:46;;;;;;;167.35;79.60;;;7.20;99.90;;;;;;5072575;28;20379;-78
2022/12/31 06:21:12;;;;;;;159.52;75.30;;;7.20;99.90;;;;;;5075108;28;20078;-78
2022/12/31 06:23:40;;;;;;;156.27;72.30;;;7.20;99.90;;;;;;5077021;28;20029;-78
2022/12/31 06:26:07;;;;;;;186.45;87.68;;;7.20;99.90;;;;;;5076329;28;20415;-77
2022/12/31 06:28:34;;;;;;;225.80;104.30;;;7.20;99.90;;;;;;5075232;28;20166;-78
2022/12/31 06:31:01;;;;;;;233.90;104.97;;;7.20;99.90;;;;;;5076158;28;20476;-79
2022/12/31 06:33:27;;;;;;;214.13;100.03;;;7.30;99.90;;;;;;5075711;28;20024;-78
2022/12/31 06:36:02;;;;;;;177.35;81.82;;;7.30;99.90;;;;;;5076481;28;20024;-78
2022/12/31 06:38:29;;;;;;;195.82;93.50;;;7.40;99.90;;;;;;5075088;28;20166;-78
2022/12/31 06:40:56;;;;;;;193.55;90.20;;;7.40;99.90;;;;;;5077703;28;20028;-79
2022/12/31 06:43:22;;;;;;;180.15;82.18;;;7.40;99.90;;;;;;5076333;28;20028;-77
2022/12/31 06:45:50;;;;;;;159.90;69.55;;;7.50;99.90;;;;;;5075430;28;20028;-78
2022/12/31 06:48:15;;;;;;;172.35;77.18;;;7.60;99.90;;;;;;5058254;28;20024;-78
2022/12/31 06:50:41;;;;;;;154.57;72.63;;;7.60;99.90;;;;;;5077530;28;20039;-79
2022/12/31 06:53:07;;;;;;;159.63;71.63;;;7.70;99.90;;;;;;5081221;28;20178;-79
2022/12/31 06:55:33;;;;;;;192.38;87.80;;;7.70;99.90;;;;;;5074742;28;20535;-79
2022/12/31 06:57:59;;;;;;;173.60;81.38;;;7.80;99.90;;;;;;5077089;28;20028;-78
2022/12/31 07:00:27;;;;;;;176.30;80.40;;;7.90;99.90;;;;;;5074144;28;20360;-78
2022/12/31 07:03:13;;;;;;;140.20;63.22;;;8.00;99.90;;;;;;5074933;28;20024;-83
2022/12/31 07:05:48;;;;;;;133.43;61.30;;;8.00;99.90;;;;;;5075463;28;20017;-80
2022/12/31 07:08:17;;;;;;;132.85;58.10;;;8.10;99.90;;;;;;5075042;28;20031;-79
2022/12/31 07:11:04;;;;;;;114.97;57.55;;;8.20;99.90;;;;;;5074349;28;20390;-78
2022/12/31 07:13:49;;;;;;;123.50;57.88;;;8.30;99.90;;;;;;5074802;28;20103;-79
2022/12/31 07:16:47;;;;;;;176.60;76.35;;;8.40;99.90;;;;;;5069006;28;20029;-78
2022/12/31 07:19:27;;;;;;;183.93;85.07;;;8.40;99.90;;;;;;4994938;28;20043;-78
2022/12/31 07:21:57;;;;;;;187.95;87.95;;;8.40;99.90;;;;;;5005476;28;20065;-80
2022/12/31 07:24:23;;;;;;;217.35;104.35;;;8.50;99.90;;;;;;5004677;28;20042;-80
2022/12/31 07:27:25;;;;;;;195.55;94.53;;;8.60;99.90;;;;;;5001601;28;20061;-79
2022/12/31 07:30:12;;;;;;;208.07;100.63;;;8.60;99.90;;;;;;4999130;28;20477;-78
2022/12/31 07:32:59;;;;;;;209.68;108.38;;;8.50;99.90;;;;;;5002255;28;20034;-79
2022/12/31 07:35:40;;;;;;;208.85;106.95;;;8.50;99.90;;;;;;5004977;28;20050;-78
2022/12/31 07:38:20;;;;;;;192.15;97.72;;;8.40;99.90;;;;;;4986013;28;20053;-78
2022/12/31 07:41:20;;;;;;;177.20;88.05;;;8.40;99.90;;;;;;5005136;28;20045;-78
2022/12/31 07:44:01;;;;;;;146.20;76.85;;;8.40;99.90;;;;;;5014670;28;20040;-77
2022/12/31 07:46:38;;;;;;;143.60;74.70;;;8.40;99.90;;;;;;4976139;28;20037;-77
2022/12/31 07:49:09;;;;;;;153.90;76.78;;;8.40;99.90;;;;;;4993009;28;20041;-77
2022/12/31 07:51:35;;;;;;;172.65;84.40;;;8.50;99.90;;;;;;4992958;28;20488;-77
2022/12/31 07:54:01;;;;;;;161.63;80.50;;;8.50;99.90;;;;;;5019995;28;20029;-77
2022/12/31 07:56:28;;;;;;;273.00;126.43;;;8.50;99.90;;;;;;5054566;28;20032;-77
2022/12/31 07:59:18;;;;;;;147.38;77.20;;;8.60;99.90;;;;;;5054705;28;20017;-77
2022/12/31 08:02:01;;;;;;;162.63;90.20;;;8.60;99.90;;;;;;5053674;28;20025;-77
2022/12/31 08:04:36;;;;;;;;;;;8.70;99.90;;;;;;5055541;28;20063;-77
2022/12/31 08:07:29;;;;;;;261.35;131.55;;;8.70;99.90;;;;;;5054667;28;20358;-77
2022/12/31 08:10:26;;;;;;;263.50;126.40;;;8.80;99.90;;;;;;5054355;28;20510;-77
2022/12/31 08:12:59;;;;;;;280.70;132.63;;;8.80;99.90;;;;;;5053219;28;20025;-76
2022/12/31 08:15:25;;;;;;;301.83;147.02;;;8.90;99.90;;;;;;5054264;28;20071;-79
2022/12/31 08:17:51;;;;;;;583.45;244.77;;;8.90;99.90;;;;;;5054144;28;20118;-76
2022/12/31 08:20:17;;;;;;;508.10;214.80;;;9.00;99.90;;;;;;5054210;28;19924;-79
2022/12/31 08:23:21;;;;;;;446.95;203.27;;;9.10;99.90;;;;;;5055027;28;20474;-77
2022/12/31 08:26:02;;;;;;;404.05;196.55;;;9.30;99.90;;;;;;5051520;28;20566;-79
2022/12/31 08:28:56;;;;;;;410.13;202.88;;;9.40;99.90;;;;;;5054568;28;20017;-79
2022/12/31 08:31:46;;;;;;;359.85;180.35;;;9.50;99.90;;;;;;5053095;28;19946;-80
2022/12/31 08:34:27;;;;;;;384.42;201.77;;;9.60;99.90;;;;;;5054089;28;20025;-79
2022/12/31 08:37:35;;;;;;;347.67;187.23;;;9.70;99.90;;;;;;5053269;28;20123;-78
2022/12/31 08:40:21;;;;;;;285.83;152.27;;;9.80;99.90;;;;;;5038198;28;20411;-77
2022/12/31 08:43:15;;;;;;;285.00;147.73;;;9.80;99.90;;;;;;5052574;28;20345;-80
2022/12/31 08:45:49;;;;;;;304.35;159.65;;;9.90;99.90;;;;;;5049911;28;20037;-78
2022/12/31 08:48:30;;;;;;;372.35;198.10;;;10.00;99.90;;;;;;5053989;28;20025;-77
2022/12/31 08:50:56;;;;;;;359.15;199.00;;;10.00;99.90;;;;;;5054445;28;20027;-78
2022/12/31 08:53:22;;;;;;;363.67;203.93;;;10.10;99.90;;;;;;5052218;28;20029;-78
2022/12/31 08:55:56;;;;;;;343.83;180.15;;;10.10;99.90;;;;;;5052385;28;20039;-79
2022/12/31 08:58:38;;;;;;;403.92;215.75;;;10.20;99.90;;;;;;5054519;28;20031;-80
2022/12/31 09:01:06;;;;;;;308.08;160.57;;;10.20;99.90;;;;;;5052246;28;19916;-80
2022/12/31 09:04:00;;;;;;;617.13;326.70;;;10.30;99.90;;;;;;5053484;28;20102;-80
2022/12/31 09:06:32;;;;;;;387.05;191.70;;;10.40;99.90;;;;;;5053826;28;20029;-79
2022/12/31 09:09:16;;;;;;;;;;;10.50;99.90;;;;;;5054074;28;20444;-79
2022/12/31 09:12:23;;;;;;;360.23;181.68;;;10.60;99.90;;;;;;5053585;28;19907;-79
2022/12/31 09:15:02;;;;;;;220.35;107.30;;;10.70;99.90;;;;;;5010113;28;20452;-80
2022/12/31 09:17:43;;;;;;;305.92;146.50;;;10.80;99.90;;;;;;4994302;28;20034;-80
2022/12/31 09:20:21;;;;;;;246.65;118.57;;;10.90;99.90;;;;;;5011480;28;20085;-80
2022/12/31 09:22:47;;;;;;;227.23;107.55;;;11.00;99.90;;;;;;5011598;28;20030;-79
2022/12/31 09:25:15;;;;;;;178.57;88.38;;;11.20;99.90;;;;;;5012000;28;20026;-79
2022/12/31 09:27:52;;;;;;;244.10;119.05;;;11.10;99.90;;;;;;5011475;28;20076;-80
2022/12/31 09:30:19;;;;;;;200.85;100.50;;;11.20;99.90;;;;;;4995018;28;20497;-81
2022/12/31 09:33:02;;;;;;;204.48;104.63;;;11.30;99.90;;;;;;5011217;28;20356;-80
2022/12/31 09:35:46;;;;;;;398.23;185.52;;;11.30;99.90;;;;;;4994604;28;20103;-80
2022/12/31 09:38:20;;;;;;;262.98;134.00;;;11.30;99.90;;;;;;4994747;28;20036;-79
2022/12/31 09:41:14;;;;;;;353.23;185.82;;;11.30;99.90;;;;;;5011402;28;20026;-79
2022/12/31 09:44:04;;;;;;;210.75;109.70;;;12.00;99.90;;;;;;5010896;28;20034;-79
2022/12/31 09:47:00;;;;;;;209.90;112.30;;;12.30;99.90;;;;;;5010878;28;20387;-78
2022/12/31 09:50:14;;;;;;;210.20;114.20;;;12.30;99.90;;;;;;5043094;28;20037;-79
2022/12/31 09:52:46;;;;;;;230.27;126.85;;;12.60;99.90;;;;;;5050315;28;20448;-79
2022/12/31 09:55:57;;;;;;;243.63;129.98;;;13.00;99.90;;;;;;5055147;28;20090;-79
2022/12/31 09:58:56;;;;;;;239.32;130.05;;;13.20;99.90;;;;;;5054563;28;20403;-79
2022/12/31 10:01:37;;;;;;;233.45;129.27;;;13.90;99.90;;;;;;5054893;28;20483;-79
2022/12/31 10:04:03;;;;;;;243.63;131.73;;;13.70;99.90;;;;;;5056291;28;20131;-78
2022/12/31 10:06:56;;;;;;;238.35;133.55;;;14.50;99.90;;;;;;5055949;28;20507;-78
2022/12/31 10:09:38;;;;;;;256.33;139.70;;;15.40;99.90;;;;;;5056752;28;20033;-78
2022/12/31 10:12:21;;;;;;;247.65;135.43;;;15.30;99.90;;;;;;5056635;28;20017;-79
2022/12/31 10:15:19;;;;;;;238.82;133.05;;;15.00;98.00;;;;;;5055592;28;20106;-78
2022/12/31 10:18:05;;;;;;;260.05;142.63;;;15.20;97.80;;;;;;5036382;28;20059;-79
2022/12/31 10:20:40;;;;;;;240.50;137.10;;;15.70;96.60;;;;;;5055451;28;20469;-78
2022/12/31 10:23:24;;;;;;;234.15;133.45;;;16.40;92.90;;;;;;5056764;28;20021;-79
2022/12/31 10:25:58;;;;;;;241.95;138.07;;;17.10;89.80;;;;;;5056700;28;20054;-78
2022/12/31 10:28:44;;;;;;;240.82;141.15;;;18.00;87.40;;;;;;5056822;28;20110;-78
2022/12/31 10:31:47;;;;;;;261.27;158.13;;;18.60;82.00;;;;;;5056707;28;20024;-78
2022/12/31 10:34:15;;;;;;;275.55;157.90;;;18.50;81.10;;;;;;5055050;28;20031;-79
2022/12/31 10:37:07;;;;;;;293.55;168.75;;;19.30;78.20;;;;;;5055369;28;20032;-77
2022/12/31 10:40:14;;;;;;;278.05;159.40;;;20.00;70.40;;;;;;5056062;28;20367;-79
2022/12/31 10:43:02;;;;;;;263.35;156.25;;;20.30;69.20;;;;;;5056249;28;20021;-78
2022/12/31 10:45:39;;;;;;;266.45;159.23;;;19.70;67.10;;;;;;5056553;28;20036;-78
2022/12/31 10:48:43;;;;;;;253.80;151.60;;;19.40;68.50;;;;;;5055974;28;20052;-78
2022/12/31 10:51:21;;;;;;;269.55;159.73;;;;;;;;;;5035276;28;20036;-78
2022/12/31 10:53:47;;;;;;;266.88;164.90;;;20.50;64.90;;;;;;5059061;28;20009;-78
2022/12/31 10:56:37;;;;;;;279.00;160.10;;;20.70;63.70;;;;;;5075987;28;20025;-78
2022/12/31 10:59:40;;;;;;;245.10;144.73;;;20.30;62.90;;;;;;5056836;28;20088;-79
2022/12/31 11:02:24;;;;;;;251.73;144.10;;;20.30;63.80;;;;;;5058441;28;20033;-78
2022/12/31 11:05:16;;;;;;;219.88;130.13;;;20.20;62.50;;;;;;5074409;28;20086;-78
2022/12/31 11:08:03;;;;;;;242.15;146.10;;;19.20;63.30;;;;;;5074724;28;20513;-80
2022/12/31 11:10:44;;;;;;;254.07;143.32;;;18.60;67.60;;;;;;5070737;28;20482;-79
2022/12/31 11:13:35;;;;;;;247.52;134.55;;;18.60;68.20;;;;;;5069858;28;20040;-79
2022/12/31 11:16:22;;;;;;;250.55;135.40;;;19.20;65.90;;;;;;5083818;28;20043;-77
2022/12/31 11:19:14;;;;;;;232.38;133.75;;;19.60;63.90;;;;;;5071046;28;20051;-79
2022/12/31 11:21:47;;;;;;;243.85;138.93;;;19.80;64.80;;;;;;5072965;28;20355;-78
2022/12/31 11:24:39;;;;;;;236.60;137.38;;;;;;;;;;5075805;28;20029;-77
2022/12/31 11:27:36;;;;;;;184.48;114.28;;;21.00;61.00;;;;;;5043848;28;20046;-77
2022/12/31 11:30:13;;;;;;;166.77;98.38;;;21.00;61.60;;;;;;5075434;28;20103;-78
2022/12/31 11:33:40;;;;;;;203.75;122.00;;;21.00;58.60;;;;;;5074320;28;20358;-79
2022/12/31 11:36:30;;;;;;;193.23;119.75;;;20.80;59.20;;;;;;5010868;28;20037;-79
2022/12/31 11:39:44;;;;;;;226.40;137.10;;;20.30;60.10;;;;;;5033169;28;20056;-79
2022/12/31 11:42:45;;;;;;;364.60;193.80;;;20.30;60.00;;;;;;4938263;28;20035;-78
2022/12/31 11:45:49;;;;;;;264.60;145.00;;;20.10;60.70;;;;;;4968821;28;20101;-78
2022/12/31 11:48:31;;;;;;;203.35;125.65;;;19.70;60.90;;;;;;4974175;28;20049;-77
2022/12/31 11:51:12;;;;;;;218.18;129.15;;;19.80;62.20;;;;;;4974287;28;20439;-78
2022/12/31 11:53:41;;;;;;;200.07;122.78;;;19.40;63.30;;;;;;4974061;28;20111;-79
2022/12/31 11:56:17;;;;;;;194.63;119.40;;;19.10;62.90;;;;;;4973733;28;20037;-78
2022/12/31 11:58:49;;;;;;;185.15;110.40;;;18.90;64.30;;;;;;4973850;28;20056;-78
2022/12/31 12:01:21;;;;;;;;;;;18.50;64.60;;;;;;4974393;28;20035;-79
2022/12/31 12:03:47;;;;;;;190.82;111.38;;;18.20;66.50;;;;;;4974052;28;20333;-78
2022/12/31 12:06:17;;;;;;;184.23;108.13;;;17.90;67.70;;;;;;4957640;28;20486;-79
2022/12/31 12:08:43;;;;;;;183.10;110.82;;;17.60;67.40;;;;;;4957587;28;20031;-78
2022/12/31 12:11:26;;;;;;;172.55;99.47;;;17.30;68.70;;;;;;4994041;28;20502;-78
2022/12/31 12:13:51;;;;;;;161.57;95.78;;;17.20;68.50;;;;;;5012856;28;20036;-79
2022/12/31 12:16:21;;;;;;;174.13;102.15;;;17.10;69.50;;;;;;4996122;28;20026;-76
2022/12/31 12:18:48;;;;;;;130.00;75.43;;;17.00;70.70;;;;;;5047223;28;20025;-78
2022/12/31 12:21:19;;;;;;;83.10;46.97;;;16.90;70.50;;;;;;5073282;28;20028;-78
2022/12/31 12:23:57;;;;;;;73.33;41.47;;;16.80;69.50;;;;;;5074670;28;20059;-80
2022/12/31 12:26:52;;;;;;;73.38;43.58;;;16.80;69.40;;;;;;5073122;28;20265;-77
2022/12/31 12:29:21;;;;;;;71.60;39.80;;;16.70;72.20;;;;;;5012273;28;20456;-79
2022/12/31 12:32:14;;;;;;;81.10;40.85;;;16.70;70.90;;;;;;5012294;28;20499;-79
2022/12/31 12:34:40;;;;;;;84.72;47.40;;;16.70;70.90;;;;;;4995812;28;20034;-79
2022/12/31 12:37:27;;;;;;;92.68;47.92;;;16.60;71.00;;;;;;5012171;28;20148;-77
2022/12/31 12:39:59;;;;;;;104.13;54.38;;;16.50;72.20;;;;;;4994510;28;20033;-77
2022/12/31 12:42:26;;;;;;;98.57;55.55;;;16.50;72.90;;;;;;4994924;28;20021;-75
2022/12/31 12:45:22;;;;;;;98.25;51.90;;;16.50;72.70;;;;;;4995121;28;20069;-78
2022/12/31 12:47:54;;;;;;;102.00;58.08;;;16.60;73.40;;;;;;4995679;28;20484;-76
2022/12/31 12:50:24;;;;;;;106.32;62.28;;;16.60;73.80;;;;;;5011307;28;20096;-79
2022/12/31 12:53:03;;;;;;;84.22;48.60;;;16.70;75.00;;;;;;4995014;28;20030;-76
2022/12/31 12:55:57;;;;;;;76.88;46.28;;;16.60;75.30;;;;;;4994734;28;20030;-77
2022/12/31 12:58:42;;;;;;;64.32;35.58;;;16.70;74.20;;;;;;4974102;28;20034;-76
2022/12/31 13:01:36;;;;;;;56.40;34.42;;;16.70;74.40;;;;;;5010015;28;20032;-76
2022/12/31 13:04:26;;;;;;;74.85;48.58;;;16.70;75.10;;;;;;4992578;28;20037;-75
2022/12/31 13:07:09;;;;;;;69.35;41.53;;;16.60;75.60;;;;;;5066772;28;20486;-75
2022/12/31 13:09:49;;;;;;;50.13;29.15;;;16.60;75.60;;;;;;5078481;28;20074;-77
2022/12/31 13:12:18;;;;;;;61.45;33.50;;;16.60;73.70;;;;;;5076096;28;20372;-77
2022/12/31 13:15:07;;;;;;;45.20;25.77;;;16.50;74.70;;;;;;5055403;28;20021;-77